SVR127 USSS-UWKD
Flight info
| Callsign | SVR127 |
|---|---|
| Flight time | N/A |
| Altitude | 36000 |
| Route | LUNAG M864 AGNOK T796 ORTIM |
| Aircraft | B738/M-V/N |
Departure
| Time | 2026-05-05 17:36 |
|---|---|
| Airport | Koltsovo Airport (USSS) |
Arrival
| Time | N/A |
|---|---|
| Airport | Kazan International Airport (UWKD) |
| Time | Latitude | Longitude | Altitude | Speed | Heading |
|---|---|---|---|---|---|
| 2026-05-05 17:02 | 56.74931 | 60.79944 | 770 ft | 0 kts | 358° |
| 2026-05-05 17:22 | 56.74930 | 60.79944 | 770 ft | 0 kts | 358° |
| 2026-05-05 17:23 | 56.74920 | 60.79945 | 771 ft | 2 kts | 0° |
| 2026-05-05 17:23 | 56.74903 | 60.79944 | 771 ft | 2 kts | 4° |
| 2026-05-05 17:23 | 56.74887 | 60.79941 | 771 ft | 2 kts | 9° |
| 2026-05-05 17:24 | 56.74871 | 60.79934 | 771 ft | 2 kts | 25° |
| 2026-05-05 17:24 | 56.74858 | 60.79916 | 771 ft | 2 kts | 65° |
| 2026-05-05 17:24 | 56.74854 | 60.79893 | 771 ft | 1 kts | 87° |
| 2026-05-05 17:24 | 56.74854 | 60.79890 | 771 ft | 0 kts | 87° |
| 2026-05-05 17:27 | 56.74854 | 60.79896 | 771 ft | 2 kts | 88° |
| 2026-05-05 17:28 | 56.74853 | 60.79956 | 771 ft | 7 kts | 92° |
| 2026-05-05 17:28 | 56.74853 | 60.80046 | 771 ft | 7 kts | 89° |
| 2026-05-05 17:28 | 56.74853 | 60.80134 | 771 ft | 7 kts | 88° |
| 2026-05-05 17:28 | 56.74855 | 60.80221 | 771 ft | 7 kts | 89° |
| 2026-05-05 17:29 | 56.74855 | 60.80305 | 772 ft | 7 kts | 91° |
| 2026-05-05 17:29 | 56.74853 | 60.80389 | 772 ft | 7 kts | 92° |
| 2026-05-05 17:29 | 56.74852 | 60.80471 | 772 ft | 7 kts | 90° |
| 2026-05-05 17:29 | 56.74851 | 60.80574 | 773 ft | 11 kts | 90° |
| 2026-05-05 17:30 | 56.74850 | 60.80736 | 773 ft | 13 kts | 86° |
| 2026-05-05 17:30 | 56.74852 | 60.80903 | 773 ft | 13 kts | 91° |
| 2026-05-05 17:30 | 56.74862 | 60.81062 | 773 ft | 13 kts | 78° |
| 2026-05-05 17:30 | 56.74863 | 60.81220 | 773 ft | 12 kts | 90° |
| 2026-05-05 17:31 | 56.74863 | 60.81374 | 773 ft | 12 kts | 90° |
| 2026-05-05 17:31 | 56.74862 | 60.81524 | 773 ft | 12 kts | 90° |
| 2026-05-05 17:31 | 56.74862 | 60.81669 | 774 ft | 11 kts | 90° |
| 2026-05-05 17:31 | 56.74861 | 60.81811 | 774 ft | 11 kts | 94° |
| 2026-05-05 17:32 | 56.74833 | 60.81941 | 774 ft | 12 kts | 116° |
| 2026-05-05 17:32 | 56.74790 | 60.82097 | 774 ft | 16 kts | 116° |
| 2026-05-05 17:32 | 56.74721 | 60.82200 | 775 ft | 13 kts | 178° |
| 2026-05-05 17:32 | 56.74634 | 60.82200 | 776 ft | 12 kts | 179° |
| 2026-05-05 17:33 | 56.74548 | 60.82203 | 778 ft | 12 kts | 179° |
| 2026-05-05 17:33 | 56.74463 | 60.82203 | 779 ft | 12 kts | 182° |
| 2026-05-05 17:33 | 56.74379 | 60.82189 | 776 ft | 12 kts | 185° |
| 2026-05-05 17:33 | 56.74295 | 60.82177 | 774 ft | 12 kts | 184° |
| 2026-05-05 17:34 | 56.74202 | 60.82165 | 770 ft | 15 kts | 184° |
| 2026-05-05 17:34 | 56.74100 | 60.82152 | 766 ft | 13 kts | 194° |
| 2026-05-05 17:34 | 56.74069 | 60.82009 | 767 ft | 13 kts | 272° |
| 2026-05-05 17:34 | 56.74071 | 60.81965 | 766 ft | 0 kts | 275° |
| 2026-05-05 17:35 | 56.74072 | 60.81944 | 766 ft | 8 kts | 275° |
| 2026-05-05 17:35 | 56.74093 | 60.81443 | 771 ft | 72 kts | 274° |
| 2026-05-05 17:35 | 56.74145 | 60.80142 | 770 ft | 131 kts | 274° |
| 2026-05-05 17:36 | 56.74220 | 60.78204 | 902 ft | 165 kts | 274° |
| 2026-05-05 17:36 | 56.74339 | 60.76173 | 1630 ft | 160 kts | 277° |
| 2026-05-05 17:36 | 56.74556 | 60.74157 | 2219 ft | 169 kts | 283° |
| 2026-05-05 17:36 | 56.74863 | 60.72010 | 2792 ft | 181 kts | 281° |
| 2026-05-05 17:37 | 56.75031 | 60.69779 | 3804 ft | 171 kts | 274° |
| 2026-05-05 17:37 | 56.75054 | 60.68342 | 4358 ft | 173 kts | 269° |
| 2026-05-05 17:37 | 56.75053 | 60.65235 | 5188 ft | 186 kts | 271° |
| 2026-05-05 17:37 | 56.75110 | 60.62944 | 5964 ft | 182 kts | 274° |
| 2026-05-05 17:38 | 56.75206 | 60.60624 | 6698 ft | 182 kts | 274° |
| 2026-05-05 17:38 | 56.75324 | 60.58334 | 7253 ft | 187 kts | 277° |
| 2026-05-05 17:38 | 56.75385 | 60.55936 | 7745 ft | 191 kts | 269° |
| 2026-05-05 17:38 | 56.75310 | 60.53564 | 8412 ft | 184 kts | 264° |
| 2026-05-05 17:39 | 56.75160 | 60.51274 | 9096 ft | 181 kts | 263° |
| 2026-05-05 17:39 | 56.75121 | 60.48960 | 9541 ft | 188 kts | 277° |
| 2026-05-05 17:39 | 56.75336 | 60.46527 | 9809 ft | 200 kts | 274° |
| 2026-05-05 17:39 | 56.75346 | 60.43995 | 10263 ft | 198 kts | 268° |
| 2026-05-05 17:40 | 56.75226 | 60.41543 | 10843 ft | 191 kts | 264° |
| 2026-05-05 17:40 | 56.75163 | 60.39117 | 11217 ft | 195 kts | 269° |
| 2026-05-05 17:40 | 56.75108 | 60.36580 | 11478 ft | 205 kts | 269° |
| 2026-05-05 17:40 | 56.75055 | 60.33971 | 11890 ft | 205 kts | 269° |
| 2026-05-05 17:41 | 56.75018 | 60.31400 | 12462 ft | 200 kts | 270° |
| 2026-05-05 17:41 | 56.75000 | 60.28870 | 12909 ft | 201 kts | 272° |
| 2026-05-05 17:41 | 56.75030 | 60.26268 | 13188 ft | 210 kts | 274° |
| 2026-05-05 17:41 | 56.75114 | 60.23581 | 13561 ft | 213 kts | 274° |
| 2026-05-05 17:42 | 56.75079 | 60.20893 | 14064 ft | 211 kts | 268° |
| 2026-05-05 17:42 | 56.74991 | 60.18243 | 14541 ft | 209 kts | 270° |
| 2026-05-05 17:42 | 56.74951 | 60.15576 | 14902 ft | 213 kts | 271° |
| 2026-05-05 17:42 | 56.74931 | 60.12834 | 15235 ft | 218 kts | 270° |
| 2026-05-05 17:43 | 56.74878 | 60.10114 | 15781 ft | 210 kts | 271° |
| 2026-05-05 17:43 | 56.74879 | 60.07492 | 16282 ft | 206 kts | 274° |
| 2026-05-05 17:43 | 56.74916 | 60.04821 | 16518 ft | 217 kts | 269° |
| 2026-05-05 17:43 | 56.74753 | 60.02013 | 16741 ft | 227 kts | 263° |
| 2026-05-05 17:44 | 56.74569 | 59.99185 | 17206 ft | 223 kts | 269° |
| 2026-05-05 17:44 | 56.74531 | 59.96305 | 17431 ft | 236 kts | 272° |
| 2026-05-05 17:44 | 56.74562 | 59.93060 | 16926 ft | 281 kts | 272° |
| 2026-05-05 17:44 | 56.74611 | 59.89241 | 16672 ft | 314 kts | 273° |
| 2026-05-05 17:45 | 56.74694 | 59.85370 | 17880 ft | 290 kts | 273° |
| 2026-05-05 17:45 | 56.74685 | 59.81770 | 18824 ft | 286 kts | 269° |
| 2026-05-05 17:45 | 56.74567 | 59.78095 | 19214 ft | 294 kts | 267° |
| 2026-05-05 17:45 | 56.74408 | 59.74369 | 19777 ft | 295 kts | 267° |
| 2026-05-05 17:46 | 56.74274 | 59.70669 | 20485 ft | 290 kts | 268° |
| 2026-05-05 17:46 | 56.74189 | 59.67014 | 21111 ft | 289 kts | 270° |
| 2026-05-05 17:46 | 56.74173 | 59.63315 | 21505 ft | 297 kts | 271° |
| 2026-05-05 17:46 | 56.74088 | 59.59493 | 21848 ft | 305 kts | 266° |
| 2026-05-05 17:47 | 56.73870 | 59.55667 | 22523 ft | 301 kts | 264° |
| 2026-05-05 17:47 | 56.73595 | 59.51908 | 23221 ft | 298 kts | 264° |
| 2026-05-05 17:47 | 56.73315 | 59.48143 | 23623 ft | 304 kts | 264° |
| 2026-05-05 17:47 | 56.73074 | 59.44255 | 23838 ft | 313 kts | 266° |
| 2026-05-05 17:48 | 56.72922 | 59.40297 | 24310 ft | 312 kts | 269° |
| 2026-05-05 17:48 | 56.72899 | 59.36400 | 24961 ft | 305 kts | 273° |
| 2026-05-05 17:48 | 56.72998 | 59.32538 | 25377 ft | 307 kts | 276° |
| 2026-05-05 17:48 | 56.73091 | 59.28581 | 25490 ft | 321 kts | 269° |
| 2026-05-05 17:49 | 56.72918 | 59.24467 | 25726 ft | 328 kts | 266° |
| 2026-05-05 17:49 | 56.72691 | 59.20389 | 26445 ft | 317 kts | 266° |
| 2026-05-05 17:49 | 56.72493 | 59.16470 | 27258 ft | 306 kts | 268° |
| 2026-05-05 17:49 | 56.72362 | 59.12614 | 27655 ft | 308 kts | 270° |
| 2026-05-05 17:50 | 56.72315 | 59.08628 | 27615 ft | 323 kts | 272° |
| 2026-05-05 17:50 | 56.72377 | 59.04434 | 27594 ft | 337 kts | 275° |
| 2026-05-05 17:50 | 56.72540 | 59.00176 | 28049 ft | 335 kts | 274° |
| 2026-05-05 17:50 | 56.72587 | 58.95995 | 28855 ft | 325 kts | 272° |
| 2026-05-05 17:51 | 56.72604 | 58.91882 | 29210 ft | 329 kts | 273° |
| 2026-05-05 17:51 | 56.72665 | 58.87621 | 29106 ft | 344 kts | 274° |
| 2026-05-05 17:51 | 56.72652 | 58.83216 | 29330 ft | 350 kts | 266° |
| 2026-05-05 17:51 | 56.72392 | 58.78848 | 30027 ft | 341 kts | 265° |
| 2026-05-05 17:52 | 56.72140 | 58.74640 | 30774 ft | 328 kts | 266° |
| 2026-05-05 17:52 | 56.71950 | 58.70531 | 31177 ft | 327 kts | 268° |
| 2026-05-05 17:52 | 56.71867 | 58.67770 | 31165 ft | 334 kts | 270° |
| 2026-05-05 17:52 | 56.71825 | 58.63435 | 30945 ft | 351 kts | 272° |
| 2026-05-05 17:53 | 56.71916 | 58.58924 | 30962 ft | 359 kts | 276° |
| 2026-05-05 17:53 | 56.72184 | 58.54435 | 31484 ft | 352 kts | 280° |
| 2026-05-05 17:53 | 56.72412 | 58.50082 | 32132 ft | 343 kts | 270° |
| 2026-05-05 17:53 | 56.72240 | 58.45750 | 32429 ft | 345 kts | 264° |
| 2026-05-05 17:54 | 56.71888 | 58.41374 | 32469 ft | 354 kts | 262° |
| 2026-05-05 17:54 | 56.70999 | 58.32390 | 32753 ft | 362 kts | 262° |
| 2026-05-05 17:54 | 56.70686 | 58.27881 | 33199 ft | 357 kts | 267° |
| 2026-05-05 17:55 | 56.70496 | 58.23403 | 33619 ft | 354 kts | 266° |
| 2026-05-05 17:55 | 56.70236 | 58.18946 | 33837 ft | 356 kts | 263° |
| 2026-05-05 17:55 | 56.69839 | 58.14450 | 33879 ft | 363 kts | 261° |
| 2026-05-05 17:56 | 56.69037 | 58.05272 | 34178 ft | 368 kts | 264° |
| 2026-05-05 17:56 | 56.68723 | 58.00670 | 34510 ft | 365 kts | 265° |
| 2026-05-05 17:56 | 56.68476 | 57.96100 | 34786 ft | 363 kts | 266° |
| 2026-05-05 17:56 | 56.68315 | 57.91561 | 34917 ft | 365 kts | 268° |
| 2026-05-05 17:57 | 56.68252 | 57.86865 | 35031 ft | 368 kts | 270° |
| 2026-05-05 17:57 | 56.68150 | 57.82274 | 35244 ft | 368 kts | 268° |
| 2026-05-05 17:57 | 56.68025 | 57.77641 | 35521 ft | 366 kts | 268° |
| 2026-05-05 17:57 | 56.67944 | 57.73029 | 35740 ft | 365 kts | 270° |
| 2026-05-05 17:58 | 56.67943 | 57.68387 | 35770 ft | 370 kts | 272° |
| 2026-05-05 17:58 | 56.67807 | 57.58935 | 35924 ft | 376 kts | 264° |
| 2026-05-05 17:58 | 56.67524 | 57.54195 | 36044 ft | 377 kts | 265° |
| 2026-05-05 17:59 | 56.67269 | 57.49431 | 36127 ft | 380 kts | 266° |
| 2026-05-05 17:59 | 56.66861 | 57.39813 | 36296 ft | 383 kts | 267° |
| 2026-05-05 17:59 | 56.66740 | 57.34978 | 36451 ft | 383 kts | 269° |
| 2026-05-05 18:00 | 56.66711 | 57.30140 | 36574 ft | 384 kts | 271° |
| 2026-05-05 18:00 | 56.66587 | 57.20275 | 36217 ft | 402 kts | 260° |
| 2026-05-05 18:01 | 56.65503 | 57.10315 | 36669 ft | 396 kts | 260° |
| 2026-05-05 18:01 | 56.65015 | 57.05410 | 36930 ft | 394 kts | 261° |
| 2026-05-05 18:01 | 56.64605 | 57.00467 | 36889 ft | 399 kts | 263° |
| 2026-05-05 18:01 | 56.64281 | 56.95402 | 36679 ft | 408 kts | 265° |
| 2026-05-05 18:02 | 56.64069 | 56.90223 | 36578 ft | 413 kts | 268° |
| 2026-05-05 18:02 | 56.64031 | 56.79749 | 36731 ft | 416 kts | 270° |
| 2026-05-05 18:03 | 56.63426 | 56.69176 | 36578 ft | 426 kts | 264° |
| 2026-05-05 18:03 | 56.63095 | 56.58458 | 36563 ft | 426 kts | 271° |
| 2026-05-05 18:03 | 56.63166 | 56.53056 | 36457 ft | 428 kts | 270° |
| 2026-05-05 18:04 | 56.62973 | 56.47646 | 36287 ft | 431 kts | 264° |
| 2026-05-05 18:04 | 56.62690 | 56.42256 | 36108 ft | 426 kts | 266° |
| 2026-05-05 18:04 | 56.62431 | 56.36920 | 35873 ft | 422 kts | 265° |
| 2026-05-05 18:04 | 56.62124 | 56.31642 | 35711 ft | 419 kts | 264° |
| 2026-05-05 18:05 | 56.61812 | 56.26399 | 35700 ft | 416 kts | 265° |
| 2026-05-05 18:05 | 56.61320 | 56.15953 | 35760 ft | 417 kts | 267° |
| 2026-05-05 18:06 | 56.61035 | 56.05374 | 35859 ft | 422 kts | 264° |
| 2026-05-05 18:06 | 56.60128 | 55.94798 | 36005 ft | 425 kts | 260° |
| 2026-05-05 18:07 | 56.58999 | 55.84206 | 36047 ft | 429 kts | 260° |
| 2026-05-05 18:07 | 56.58059 | 55.73506 | 36174 ft | 429 kts | 263° |
| 2026-05-05 18:08 | 56.57526 | 55.62738 | 36099 ft | 428 kts | 268° |
| 2026-05-05 18:08 | 56.57451 | 55.57359 | 35867 ft | 425 kts | 270° |
| 2026-05-05 18:08 | 56.57508 | 55.52031 | 35613 ft | 421 kts | 272° |
| 2026-05-05 18:08 | 56.57696 | 55.46757 | 35405 ft | 419 kts | 275° |
| 2026-05-05 18:09 | 56.57996 | 55.41515 | 35316 ft | 416 kts | 272° |
| 2026-05-05 18:09 | 56.57844 | 55.36270 | 35076 ft | 418 kts | 264° |
| 2026-05-05 18:09 | 56.57432 | 55.31152 | 35199 ft | 411 kts | 261° |
| 2026-05-05 18:09 | 56.56918 | 55.26096 | 35623 ft | 404 kts | 259° |
| 2026-05-05 18:10 | 56.56376 | 55.21101 | 35721 ft | 407 kts | 259° |
| 2026-05-05 18:10 | 56.55844 | 55.16008 | 35617 ft | 414 kts | 261° |
| 2026-05-05 18:10 | 56.55377 | 55.10856 | 35763 ft | 414 kts | 262° |
| 2026-05-05 18:10 | 56.55002 | 55.05682 | 35933 ft | 414 kts | 264° |
| 2026-05-05 18:11 | 56.54734 | 55.00485 | 35999 ft | 416 kts | 266° |
| 2026-05-05 18:11 | 56.54146 | 54.89973 | 36059 ft | 423 kts | 261° |
| 2026-05-05 18:12 | 56.53238 | 54.79419 | 36157 ft | 425 kts | 262° |
| 2026-05-05 18:12 | 56.52474 | 54.68738 | 36119 ft | 429 kts | 264° |
| 2026-05-05 18:13 | 56.52001 | 54.58056 | 35882 ft | 422 kts | 266° |
| 2026-05-05 18:13 | 56.51809 | 54.52781 | 35720 ft | 418 kts | 267° |
| 2026-05-05 18:13 | 56.51619 | 54.47538 | 35643 ft | 417 kts | 264° |
| 2026-05-05 18:14 | 56.50724 | 54.37232 | 35671 ft | 414 kts | 258° |
| 2026-05-05 18:14 | 56.49221 | 54.27101 | 35760 ft | 420 kts | 250° |
| 2026-05-05 18:15 | 56.47007 | 54.17259 | 35885 ft | 425 kts | 247° |
| 2026-05-05 18:15 | 56.44567 | 54.07462 | 35949 ft | 429 kts | 248° |
| 2026-05-05 18:16 | 56.42217 | 53.97533 | 35909 ft | 428 kts | 249° |
| 2026-05-05 18:16 | 56.41092 | 53.92580 | 35763 ft | 425 kts | 250° |
| 2026-05-05 18:16 | 56.40037 | 53.87638 | 35616 ft | 420 kts | 251° |
| 2026-05-05 18:17 | 56.38200 | 53.77643 | 35495 ft | 418 kts | 255° |
| 2026-05-05 18:17 | 56.35776 | 53.68149 | 35442 ft | 418 kts | 240° |
| 2026-05-05 18:17 | 56.34339 | 53.63742 | 35774 ft | 410 kts | 243° |
| 2026-05-05 18:18 | 56.33027 | 53.59187 | 35954 ft | 410 kts | 245° |
| 2026-05-05 18:18 | 56.30603 | 53.49748 | 35897 ft | 419 kts | 249° |
| 2026-05-05 18:19 | 56.28470 | 53.39929 | 35927 ft | 426 kts | 248° |
| 2026-05-05 18:19 | 56.27208 | 53.35076 | 35760 ft | 427 kts | 246° |
| 2026-05-05 18:19 | 56.25977 | 53.30274 | 35428 ft | 420 kts | 247° |
| 2026-05-05 18:19 | 56.24825 | 53.25466 | 34897 ft | 418 kts | 249° |
| 2026-05-05 18:20 | 56.23708 | 53.20702 | 34760 ft | 408 kts | 244° |
| 2026-05-05 18:20 | 56.22237 | 53.16370 | 34352 ft | 408 kts | 236° |
| 2026-05-05 18:20 | 56.20630 | 53.12149 | 33694 ft | 410 kts | 238° |
| 2026-05-05 18:20 | 56.19082 | 53.07835 | 33062 ft | 411 kts | 239° |
| 2026-05-05 18:21 | 56.17649 | 53.03410 | 32468 ft | 411 kts | 243° |
| 2026-05-05 18:21 | 56.16248 | 52.98927 | 31787 ft | 413 kts | 243° |
| 2026-05-05 18:21 | 56.14889 | 52.94360 | 30998 ft | 418 kts | 243° |
| 2026-05-05 18:21 | 56.13524 | 52.89729 | 30267 ft | 421 kts | 244° |
| 2026-05-05 18:22 | 56.12196 | 52.85030 | 29451 ft | 424 kts | 245° |
| 2026-05-05 18:22 | 56.10951 | 52.80216 | 28575 ft | 427 kts | 248° |
| 2026-05-05 18:22 | 56.09787 | 52.75312 | 27799 ft | 427 kts | 248° |
| 2026-05-05 18:22 | 56.08618 | 52.70410 | 26987 ft | 429 kts | 248° |
| 2026-05-05 18:23 | 56.07447 | 52.65470 | 26004 ft | 434 kts | 248° |
| 2026-05-05 18:23 | 56.06296 | 52.60451 | 25212 ft | 435 kts | 249° |
| 2026-05-05 18:23 | 56.05180 | 52.55409 | 24311 ft | 438 kts | 248° |
| 2026-05-05 18:23 | 56.03924 | 52.50399 | 23300 ft | 444 kts | 246° |
| 2026-05-05 18:24 | 56.02612 | 52.45397 | 22425 ft | 444 kts | 245° |
| 2026-05-05 18:24 | 56.01255 | 52.40487 | 21642 ft | 439 kts | 244° |
| 2026-05-05 18:24 | 55.99837 | 52.35599 | 20354 ft | 447 kts | 243° |
| 2026-05-05 18:24 | 55.98329 | 52.30746 | 19772 ft | 440 kts | 241° |
| 2026-05-05 18:25 | 55.96847 | 52.26098 | 19482 ft | 425 kts | 241° |
| 2026-05-05 18:25 | 55.96373 | 52.24619 | 19191 ft | 424 kts | 242° |
| 2026-05-05 18:25 | 55.93846 | 52.16903 | 17797 ft | 424 kts | 239° |
| 2026-05-05 18:25 | 55.92448 | 52.12467 | 17999 ft | 398 kts | 243° |
| 2026-05-05 18:26 | 55.91210 | 52.08111 | 17376 ft | 393 kts | 245° |
| 2026-05-05 18:26 | 55.90019 | 52.03737 | 16347 ft | 402 kts | 244° |
| 2026-05-05 18:26 | 55.88733 | 51.99312 | 15625 ft | 401 kts | 244° |
| 2026-05-05 18:26 | 55.87451 | 51.94958 | 15193 ft | 392 kts | 244° |
| 2026-05-05 18:27 | 55.86285 | 51.90568 | 14413 ft | 394 kts | 246° |
| 2026-05-05 18:27 | 55.85161 | 51.86044 | 13704 ft | 394 kts | 248° |
| 2026-05-05 18:27 | 55.84080 | 51.81682 | 13255 ft | 386 kts | 246° |
| 2026-05-05 18:27 | 55.82957 | 51.77423 | 12969 ft | 374 kts | 246° |
| 2026-05-05 18:28 | 55.80794 | 51.69048 | 11660 ft | 373 kts | 247° |
| 2026-05-05 18:28 | 55.79779 | 51.64866 | 11365 ft | 362 kts | 248° |
| 2026-05-05 18:28 | 55.78827 | 51.60757 | 10862 ft | 359 kts | 249° |
| 2026-05-05 18:29 | 55.77906 | 51.56639 | 10304 ft | 359 kts | 249° |
| 2026-05-05 18:29 | 55.77031 | 51.52552 | 10203 ft | 345 kts | 250° |
| 2026-05-05 18:29 | 55.76244 | 51.48644 | 10148 ft | 331 kts | 251° |
| 2026-05-05 18:29 | 55.75429 | 51.44815 | 9531 ft | 334 kts | 248° |
| 2026-05-05 18:30 | 55.74517 | 51.41031 | 9194 ft | 328 kts | 247° |
| 2026-05-05 18:30 | 55.73592 | 51.37399 | 8985 ft | 320 kts | 246° |